createdAt,value
2018-02-07T00:00:59.643Z,10.67
2018-02-07T00:03:26.366Z,10.70
2018-02-07T00:05:52.486Z,11.30
2018-02-07T00:08:18.605Z,10.20
2018-02-07T00:10:44.736Z,11.47
2018-02-07T00:13:10.891Z,10.33
2018-02-07T00:15:36.991Z,11.30
2018-02-07T00:18:03.147Z,11.40
2018-02-07T00:20:29.273Z,10.37
2018-02-07T00:22:55.438Z,10.33
2018-02-07T00:25:21.577Z,10.70
2018-02-07T00:27:47.665Z,10.33
2018-02-07T00:30:13.794Z,9.83
2018-02-07T00:32:39.964Z,11.53
2018-02-07T00:35:06.117Z,11.83
2018-02-07T00:37:32.201Z,10.93
2018-02-07T00:39:58.382Z,10.77
2018-02-07T00:42:24.505Z,9.97
2018-02-07T00:44:50.579Z,11.10
2018-02-07T00:47:16.729Z,10.97
2018-02-07T00:49:42.854Z,11.13
2018-02-07T00:52:08.951Z,11.53
2018-02-07T00:54:35.086Z,10.53
2018-02-07T00:57:01.194Z,10.93
2018-02-07T00:59:27.284Z,11.57
2018-02-07T01:01:53.385Z,11.90
2018-02-07T01:04:19.530Z,11.27
2018-02-07T01:06:45.620Z,10.63
2018-02-07T01:09:11.741Z,11.87
2018-02-07T01:11:37.830Z,9.77
2018-02-07T01:14:03.964Z,10.13
2018-02-07T01:16:30.111Z,10.10
2018-02-07T01:18:56.261Z,10.23
2018-02-07T01:21:22.959Z,9.70
2018-02-07T01:23:49.132Z,10.50
2018-02-07T01:26:15.245Z,10.67
2018-02-07T01:28:41.315Z,9.87
2018-02-07T01:31:07.510Z,10.30
2018-02-07T01:33:33.684Z,9.43
2018-02-07T01:35:59.776Z,10.03
2018-02-07T01:38:25.921Z,9.37
2018-02-07T01:40:52.032Z,9.77
2018-02-07T01:43:18.208Z,9.80
2018-02-07T01:45:44.344Z,12.10
2018-02-07T01:48:10.451Z,9.63
2018-02-07T01:50:36.646Z,9.93
2018-02-07T01:53:02.806Z,8.80
2018-02-07T01:55:28.918Z,10.10
2018-02-07T01:57:55.011Z,9.33
2018-02-07T02:00:21.144Z,9.97
2018-02-07T02:02:47.289Z,8.07
2018-02-07T02:05:13.452Z,9.33
2018-02-07T02:07:39.612Z,8.40
2018-02-07T02:10:05.704Z,9.43
2018-02-07T02:12:31.854Z,10.03
2018-02-07T02:14:58.012Z,9.57
2018-02-07T02:17:24.104Z,8.90
2018-02-07T02:19:50.360Z,9.67
2018-02-07T02:22:16.433Z,11.07
2018-02-07T02:24:42.582Z,9.37
2018-02-07T02:27:08.697Z,9.57
2018-02-07T02:29:34.851Z,9.90
2018-02-07T02:32:00.957Z,8.90
2018-02-07T02:34:27.104Z,8.50
2018-02-07T02:36:53.195Z,9.00
2018-02-07T02:39:19.284Z,9.73
2018-02-07T02:41:45.429Z,8.63
2018-02-07T02:44:11.598Z,8.27
2018-02-07T02:46:37.718Z,9.47
2018-02-07T02:49:03.849Z,8.83
2018-02-07T02:51:30.005Z,8.33
2018-02-07T02:53:56.410Z,8.57
2018-02-07T02:56:22.517Z,9.10
2018-02-07T02:58:48.656Z,12.97
2018-02-07T03:01:14.749Z,9.13
2018-02-07T03:03:40.885Z,8.83
2018-02-07T03:06:07.019Z,8.67
2018-02-07T03:08:33.120Z,9.33
2018-02-07T03:10:59.258Z,8.70
2018-02-07T03:13:25.427Z,9.80
2018-02-07T03:15:51.533Z,9.37
2018-02-07T03:18:17.664Z,8.73
2018-02-07T03:20:43.778Z,9.30
2018-02-07T03:23:09.920Z,9.27
2018-02-07T03:25:36.052Z,9.53
2018-02-07T03:28:02.170Z,9.70
2018-02-07T03:30:28.253Z,10.17
2018-02-07T03:32:54.343Z,10.27
2018-02-07T03:35:20.483Z,12.93
2018-02-07T03:37:46.646Z,9.77
2018-02-07T03:40:12.738Z,10.10
2018-02-07T03:42:38.851Z,9.87
2018-02-07T03:45:05.047Z,9.97
2018-02-07T03:47:31.128Z,9.70
2018-02-07T03:49:57.289Z,9.57
2018-02-07T03:52:23.377Z,9.33
2018-02-07T03:54:49.617Z,10.90
2018-02-07T03:57:15.695Z,10.53
2018-02-07T03:59:41.790Z,9.90
2018-02-07T04:02:07.911Z,10.67
2018-02-07T04:04:34.059Z,9.80
2018-02-07T04:07:00.154Z,11.67
2018-02-07T04:09:26.296Z,10.80
2018-02-07T04:11:52.521Z,12.83
2018-02-07T04:14:18.749Z,11.00
2018-02-07T04:16:44.933Z,10.10
2018-02-07T04:19:11.175Z,11.83
2018-02-07T04:21:37.420Z,10.20
2018-02-07T04:24:03.625Z,11.13
2018-02-07T04:26:29.785Z,11.07
2018-02-07T04:28:56.556Z,10.83
2018-02-07T04:31:22.719Z,10.57
2018-02-07T04:33:48.944Z,11.20
2018-02-07T04:36:15.165Z,10.47
2018-02-07T04:38:41.333Z,10.33
2018-02-07T04:41:07.471Z,10.57
2018-02-07T04:43:33.664Z,11.80
2018-02-07T04:45:59.801Z,12.00
2018-02-07T04:48:25.947Z,13.93
2018-02-07T04:50:52.189Z,10.67
2018-02-07T04:53:18.415Z,11.53
2018-02-07T04:55:44.603Z,10.57
2018-02-07T04:58:10.755Z,11.03
2018-02-07T05:00:36.984Z,12.20
2018-02-07T05:03:03.130Z,12.40
2018-02-07T05:05:29.335Z,11.93
2018-02-07T05:07:55.524Z,10.63
2018-02-07T05:10:21.655Z,12.03
2018-02-07T05:12:47.782Z,13.87
2018-02-07T05:15:13.988Z,13.50
2018-02-07T05:17:40.148Z,14.57
2018-02-07T05:20:06.408Z,13.97
2018-02-07T05:22:32.564Z,14.70
2018-02-07T05:24:58.771Z,15.13
2018-02-07T05:27:24.977Z,13.37
2018-02-07T05:29:51.151Z,12.93
2018-02-07T05:32:17.365Z,13.03
2018-02-07T05:34:43.544Z,12.60
2018-02-07T05:37:09.728Z,12.30
2018-02-07T05:39:35.888Z,12.33
2018-02-07T05:42:02.069Z,12.07
2018-02-07T05:44:28.252Z,12.13
2018-02-07T05:46:54.388Z,11.80
2018-02-07T05:49:20.505Z,12.00
2018-02-07T05:51:46.733Z,11.60
2018-02-07T05:54:13.131Z,12.57
2018-02-07T05:56:39.317Z,12.37
2018-02-07T05:59:05.545Z,12.57
2018-02-07T06:01:31.696Z,13.73
2018-02-07T06:03:57.898Z,12.10
2018-02-07T06:06:24.050Z,12.17
2018-02-07T06:08:50.207Z,12.13
2018-02-07T06:11:16.401Z,11.43
2018-02-07T06:13:42.645Z,12.60
2018-02-07T06:16:08.821Z,10.93
2018-02-07T06:18:34.960Z,12.13
2018-02-07T06:21:01.132Z,11.40
2018-02-07T06:23:27.308Z,11.63
2018-02-07T06:25:53.488Z,11.57
2018-02-07T06:28:19.722Z,12.77
2018-02-07T06:30:45.915Z,13.07
2018-02-07T06:33:12.089Z,13.70
2018-02-07T06:35:38.293Z,12.30
2018-02-07T06:38:04.521Z,15.30
2018-02-07T06:40:30.695Z,13.30
2018-02-07T06:42:56.870Z,12.10
2018-02-07T06:45:23.140Z,12.83
2018-02-07T06:47:49.292Z,13.33
2018-02-07T06:50:15.428Z,12.30
2018-02-07T06:52:41.623Z,13.67
2018-02-07T06:55:07.840Z,13.63
2018-02-07T06:57:34.026Z,13.23
2018-02-07T07:00:00.341Z,13.37
2018-02-07T07:02:26.515Z,12.77
2018-02-07T07:04:52.732Z,14.40
2018-02-07T07:07:18.928Z,15.07
2018-02-07T07:09:45.403Z,16.80
2018-02-07T07:12:11.634Z,15.20
2018-02-07T07:14:37.832Z,17.97
2018-02-07T07:17:04.051Z,15.17
2018-02-07T07:19:30.218Z,15.73
2018-02-07T07:21:56.448Z,16.37
2018-02-07T07:24:22.646Z,15.13
2018-02-07T07:26:48.800Z,15.27
2018-02-07T07:29:15.013Z,15.03
2018-02-07T07:31:41.181Z,20.03
2018-02-07T07:34:07.416Z,38.97
2018-02-07T07:36:33.615Z,18.57
2018-02-07T07:38:59.763Z,16.10
2018-02-07T07:41:25.926Z,14.70
2018-02-07T07:43:52.137Z,15.97
2018-02-07T07:46:18.379Z,15.83
2018-02-07T07:48:44.535Z,14.47
2018-02-07T07:51:10.772Z,14.77
2018-02-07T07:53:36.916Z,14.57
2018-02-07T07:56:03.182Z,14.97
2018-02-07T07:58:29.308Z,14.10
2018-02-07T08:00:55.538Z,15.00
2018-02-07T08:03:21.670Z,14.23
2018-02-07T08:05:47.971Z,15.60
2018-02-07T08:08:14.121Z,15.67
2018-02-07T08:10:40.260Z,13.00
2018-02-07T08:13:06.442Z,13.53
2018-02-07T08:15:32.663Z,13.43
2018-02-07T08:17:58.787Z,13.73
2018-02-07T08:20:24.928Z,14.13
2018-02-07T08:22:51.025Z,16.70
2018-02-07T08:25:17.202Z,16.40
2018-02-07T08:27:43.345Z,13.30
2018-02-07T08:30:09.490Z,15.50
2018-02-07T08:32:35.588Z,16.77
2018-02-07T08:35:01.735Z,17.27
2018-02-07T08:37:27.905Z,15.03
2018-02-07T08:39:54.012Z,16.67
2018-02-07T08:42:20.212Z,14.50
2018-02-07T08:44:46.446Z,13.83
2018-02-07T08:47:12.617Z,13.63
2018-02-07T08:49:38.829Z,13.63
2018-02-07T08:52:05.067Z,15.83
2018-02-07T08:54:31.319Z,16.53
2018-02-07T08:56:57.488Z,16.17
2018-02-07T08:59:23.748Z,15.40
2018-02-07T09:01:49.916Z,14.20
2018-02-07T09:04:16.080Z,14.70
2018-02-07T09:06:42.286Z,12.83
2018-02-07T09:09:08.514Z,14.23
2018-02-07T09:11:34.670Z,15.90
2018-02-07T09:14:00.878Z,14.63
2018-02-07T09:16:27.155Z,13.33
2018-02-07T09:18:53.318Z,12.07
2018-02-07T09:21:19.485Z,13.57
2018-02-07T09:23:45.671Z,12.87
2018-02-07T09:26:11.847Z,12.30
2018-02-07T09:28:38.058Z,12.77
2018-02-07T09:31:04.242Z,12.03
2018-02-07T09:33:30.456Z,16.20
2018-02-07T09:35:56.654Z,13.30
2018-02-07T09:38:22.830Z,12.70
2018-02-07T09:40:49.073Z,14.70
2018-02-07T09:43:15.288Z,13.17
2018-02-07T09:45:41.526Z,11.33
2018-02-07T09:48:07.704Z,12.30
2018-02-07T09:50:33.956Z,9.97
2018-02-07T09:53:00.177Z,11.47
2018-02-07T09:55:26.472Z,12.13
2018-02-07T09:57:52.723Z,13.67
2018-02-07T10:00:19.328Z,10.77
2018-02-07T10:02:45.481Z,10.50
2018-02-07T10:05:11.719Z,8.27
2018-02-07T10:07:37.907Z,8.63
2018-02-07T10:10:04.097Z,9.00
2018-02-07T10:12:30.300Z,9.13
2018-02-07T10:14:56.695Z,8.30
2018-02-07T10:17:22.832Z,10.90
2018-02-07T10:19:49.062Z,10.13
2018-02-07T10:22:15.328Z,9.60
2018-02-07T10:24:41.534Z,7.73
2018-02-07T10:27:07.892Z,9.30
2018-02-07T10:29:34.197Z,9.03
2018-02-07T10:32:00.394Z,8.90
2018-02-07T10:34:26.545Z,9.13
2018-02-07T10:36:52.825Z,7.83
2018-02-07T10:39:18.963Z,7.57
2018-02-07T10:41:45.183Z,7.30
2018-02-07T10:44:11.384Z,7.77
2018-02-07T10:46:37.643Z,7.87
2018-02-07T10:49:03.909Z,10.37
2018-02-07T10:51:30.146Z,8.77
2018-02-07T10:53:56.320Z,10.83
2018-02-07T10:56:22.554Z,7.43
2018-02-07T10:58:48.802Z,8.80
2018-02-07T11:01:14.954Z,9.77
2018-02-07T11:03:41.206Z,8.87
2018-02-07T11:06:07.425Z,8.47
2018-02-07T11:08:34.486Z,8.20
2018-02-07T11:11:00.741Z,8.40
2018-02-07T11:13:27.003Z,8.70
2018-02-07T11:15:53.297Z,7.63
2018-02-07T11:18:19.653Z,7.83
2018-02-07T11:20:45.876Z,8.23
2018-02-07T11:23:12.088Z,8.53
2018-02-07T11:25:38.346Z,8.47
2018-02-07T11:28:05.427Z,7.03
2018-02-07T11:30:31.706Z,9.90
2018-02-07T11:32:57.928Z,6.83
2018-02-07T11:35:24.112Z,7.47
2018-02-07T11:37:50.352Z,7.30
2018-02-07T11:40:16.521Z,8.60
2018-02-07T11:42:42.727Z,9.20
2018-02-07T11:45:09.018Z,8.37
2018-02-07T11:47:35.200Z,9.00
2018-02-07T11:50:01.421Z,7.90
2018-02-07T11:52:27.623Z,8.67
2018-02-07T11:54:53.797Z,7.90
2018-02-07T11:57:20.030Z,9.60
2018-02-07T11:59:46.259Z,8.53
2018-02-07T12:02:12.558Z,6.73
2018-02-07T12:04:38.755Z,8.23
2018-02-07T12:07:04.964Z,12.30
2018-02-07T12:09:31.144Z,8.53
2018-02-07T12:11:57.686Z,7.57
2018-02-07T12:14:23.847Z,7.33
2018-02-07T12:16:50.068Z,7.13
2018-02-07T12:19:16.267Z,8.27
2018-02-07T12:21:42.439Z,7.00
2018-02-07T12:24:08.671Z,7.80
2018-02-07T12:26:34.901Z,7.10
2018-02-07T12:29:01.169Z,6.73
2018-02-07T12:31:27.343Z,6.87
2018-02-07T12:33:53.540Z,5.90
2018-02-07T12:36:19.813Z,6.90
2018-02-07T12:38:46.014Z,7.20
2018-02-07T12:41:12.210Z,8.67
2018-02-07T12:43:38.359Z,11.57
2018-02-07T12:46:04.610Z,7.97
2018-02-07T12:48:30.824Z,6.50
2018-02-07T12:50:57.000Z,7.43
2018-02-07T12:53:23.213Z,8.37
2018-02-07T12:55:49.457Z,6.23
2018-02-07T12:58:15.635Z,7.80
2018-02-07T13:00:41.894Z,7.00
2018-02-07T13:03:08.023Z,7.40
2018-02-07T13:05:34.248Z,6.33
2018-02-07T13:08:00.496Z,7.10
2018-02-07T13:10:26.705Z,7.33
2018-02-07T13:12:52.994Z,7.20
2018-02-07T13:15:19.163Z,7.70
2018-02-07T13:17:45.380Z,6.67
2018-02-07T13:20:11.600Z,10.77
2018-02-07T13:22:37.782Z,7.60
2018-02-07T13:25:03.993Z,7.03
2018-02-07T13:27:30.246Z,7.60
2018-02-07T13:29:56.606Z,7.17
2018-02-07T13:32:22.826Z,8.03
2018-02-07T13:34:49.024Z,9.30
2018-02-07T13:37:15.251Z,7.47
2018-02-07T13:39:41.437Z,7.40
2018-02-07T13:42:07.645Z,7.73
2018-02-07T13:44:33.864Z,7.93
2018-02-07T13:47:00.118Z,7.07
2018-02-07T13:49:26.450Z,6.80
2018-02-07T13:51:52.660Z,6.87
2018-02-07T13:54:18.931Z,8.03
2018-02-07T13:56:45.126Z,10.67
2018-02-07T13:59:11.332Z,6.67
2018-02-07T14:01:37.439Z,9.00
2018-02-07T14:04:03.616Z,7.97
2018-02-07T14:06:29.774Z,7.33
2018-02-07T14:08:55.897Z,8.17
2018-02-07T14:11:22.099Z,6.97
2018-02-07T14:13:48.283Z,8.43
2018-02-07T14:16:14.528Z,10.53
2018-02-07T14:18:40.791Z,10.97
2018-02-07T14:21:06.968Z,7.13
2018-02-07T14:23:33.191Z,9.63
2018-02-07T14:25:59.476Z,9.57
2018-02-07T14:28:25.742Z,10.13
2018-02-07T14:30:51.968Z,8.43
2018-02-07T14:33:18.164Z,12.07
2018-02-07T14:35:44.359Z,7.63
2018-02-07T14:38:10.590Z,9.17
2018-02-07T14:40:36.808Z,9.37
2018-02-07T14:43:03.000Z,8.10
2018-02-07T14:45:29.183Z,8.73
2018-02-07T14:47:55.397Z,8.70
2018-02-07T14:50:21.573Z,8.40
2018-02-07T14:52:47.751Z,8.17
2018-02-07T14:55:13.950Z,9.17
2018-02-07T14:57:40.216Z,8.27
2018-02-07T15:00:06.456Z,7.57
2018-02-07T15:02:32.676Z,7.00
2018-02-07T15:04:58.878Z,9.17
2018-02-07T15:07:25.096Z,7.20
2018-02-07T15:09:51.291Z,10.73
2018-02-07T15:12:17.491Z,6.00
2018-02-07T15:14:43.707Z,6.97
2018-02-07T15:17:09.983Z,6.93
2018-02-07T15:19:36.150Z,8.87
2018-02-07T15:22:02.304Z,6.77
2018-02-07T15:24:28.509Z,6.03
2018-02-07T15:26:54.706Z,6.03
2018-02-07T15:29:20.982Z,7.90
2018-02-07T15:31:47.133Z,6.90
2018-02-07T15:34:13.399Z,6.57
2018-02-07T15:36:39.582Z,6.67
2018-02-07T15:39:05.769Z,7.90
2018-02-07T15:41:31.965Z,7.23
2018-02-07T15:43:59.199Z,8.17
2018-02-07T15:46:25.433Z,10.10
2018-02-07T15:48:51.622Z,6.47
2018-02-07T15:51:17.872Z,7.97
2018-02-07T15:53:44.034Z,8.17
2018-02-07T15:56:10.228Z,7.93
2018-02-07T15:58:36.501Z,8.73
2018-02-07T16:01:02.812Z,8.10
2018-02-07T16:03:29.052Z,7.67
2018-02-07T16:05:55.320Z,7.63
2018-02-07T16:08:21.541Z,7.87
2018-02-07T16:10:47.751Z,7.83
2018-02-07T16:13:13.934Z,6.53
2018-02-07T16:15:40.188Z,8.17
2018-02-07T16:18:06.480Z,9.63
2018-02-07T16:20:32.659Z,9.03
2018-02-07T16:22:58.853Z,10.90
2018-02-07T16:25:25.041Z,10.00
2018-02-07T16:27:51.313Z,10.03
2018-02-07T16:30:17.607Z,11.60
2018-02-07T16:32:43.864Z,13.60
2018-02-07T16:35:10.098Z,16.30
2018-02-07T16:37:36.358Z,13.67
2018-02-07T16:40:02.515Z,10.87
2018-02-07T16:42:28.757Z,9.57
2018-02-07T16:44:54.934Z,10.70
2018-02-07T16:47:21.136Z,10.93
2018-02-07T16:49:47.402Z,11.27
2018-02-07T16:52:13.696Z,9.47
2018-02-07T16:54:39.914Z,10.27
2018-02-07T16:57:06.131Z,10.93
2018-02-07T16:59:32.386Z,13.60
2018-02-07T17:01:58.784Z,8.67
2018-02-07T17:04:25.193Z,7.90
2018-02-07T17:06:51.495Z,8.27
2018-02-07T17:09:17.700Z,7.10
2018-02-07T17:11:43.969Z,7.97
2018-02-07T17:14:10.114Z,7.60
2018-02-07T17:16:36.304Z,7.50
2018-02-07T17:19:02.509Z,7.83
2018-02-07T17:21:28.727Z,8.40
2018-02-07T17:23:54.966Z,17.07
2018-02-07T17:26:21.437Z,19.07
2018-02-07T17:28:47.670Z,20.67
2018-02-07T17:31:13.886Z,12.77
2018-02-07T17:33:40.077Z,13.10
2018-02-07T17:36:06.307Z,12.97
2018-02-07T17:38:32.700Z,11.80
2018-02-07T17:40:58.998Z,9.37
2018-02-07T17:43:25.210Z,10.13
2018-02-07T17:45:51.824Z,10.07
2018-02-07T17:48:18.088Z,9.10
2018-02-07T17:50:44.263Z,9.90
2018-02-07T17:53:10.664Z,9.57
2018-02-07T17:55:37.007Z,9.17
2018-02-07T17:58:03.249Z,8.90
2018-02-07T18:00:29.470Z,8.97
2018-02-07T18:02:55.668Z,9.20
2018-02-07T18:05:21.961Z,8.30
2018-02-07T18:07:48.188Z,9.10
2018-02-07T18:10:14.443Z,9.03
2018-02-07T18:12:40.720Z,10.13
2018-02-07T18:15:06.921Z,9.27
2018-02-07T18:17:33.070Z,9.03
2018-02-07T18:19:59.225Z,9.77
2018-02-07T18:22:25.471Z,9.63
2018-02-07T18:24:51.622Z,9.10
2018-02-07T18:27:17.857Z,10.30
2018-02-07T18:29:44.080Z,9.93
2018-02-07T18:32:10.301Z,9.00
2018-02-07T18:34:36.538Z,12.50
2018-02-07T18:37:02.843Z,12.03
2018-02-07T18:39:29.077Z,12.53
2018-02-07T18:41:55.325Z,13.03
2018-02-07T18:44:21.591Z,16.87
2018-02-07T18:46:47.832Z,12.17
2018-02-07T18:49:14.088Z,11.97
2018-02-07T18:51:40.438Z,13.40
2018-02-07T18:54:06.686Z,12.60
2018-02-07T18:56:32.931Z,12.33
2018-02-07T18:58:59.201Z,13.17
2018-02-07T19:01:25.434Z,12.53
2018-02-07T19:03:51.648Z,11.43
2018-02-07T19:06:17.856Z,12.77
2018-02-07T19:08:44.116Z,16.20
2018-02-07T19:11:10.336Z,15.13
2018-02-07T19:13:36.584Z,13.20
2018-02-07T19:16:02.854Z,12.97
2018-02-07T19:18:29.106Z,12.57
2018-02-07T19:20:55.305Z,12.80
2018-02-07T19:23:21.530Z,15.30
2018-02-07T19:25:47.669Z,24.40
2018-02-07T19:28:13.965Z,15.20
2018-02-07T19:30:40.185Z,14.67
2018-02-07T19:33:06.525Z,13.97
2018-02-07T19:35:32.739Z,13.33
2018-02-07T19:37:59.137Z,13.47
2018-02-07T19:40:25.355Z,14.93
2018-02-07T19:42:51.609Z,13.80
2018-02-07T19:45:17.883Z,13.40
2018-02-07T19:47:44.131Z,12.00
2018-02-07T19:50:10.314Z,13.60
2018-02-07T19:52:36.592Z,13.53
2018-02-07T19:55:02.811Z,13.07
2018-02-07T19:57:29.028Z,13.27
2018-02-07T19:59:55.288Z,15.33
2018-02-07T20:02:21.508Z,15.93
2018-02-07T20:04:47.668Z,14.23
2018-02-07T20:07:13.941Z,14.63
2018-02-07T20:09:40.213Z,15.73
2018-02-07T20:12:06.453Z,19.57
2018-02-07T20:14:32.592Z,17.93
2018-02-07T20:16:58.819Z,16.63
2018-02-07T20:19:24.970Z,15.77
2018-02-07T20:21:51.182Z,14.87
2018-02-07T20:24:17.362Z,14.40
2018-02-07T20:26:43.485Z,13.90
2018-02-07T20:29:09.649Z,16.07
2018-02-07T20:31:35.834Z,18.00
2018-02-07T20:34:02.006Z,20.70
2018-02-07T20:36:28.209Z,18.43
2018-02-07T20:38:54.382Z,21.80
2018-02-07T20:41:20.512Z,21.63
2018-02-07T20:43:46.699Z,19.60
2018-02-07T20:46:12.916Z,21.93
2018-02-07T20:48:39.135Z,20.87
2018-02-07T20:51:05.315Z,23.33
2018-02-07T20:53:31.511Z,22.27
2018-02-07T20:55:57.691Z,34.53
2018-02-07T20:58:23.846Z,31.57
2018-02-07T21:00:50.089Z,32.87
2018-02-07T21:03:16.293Z,29.50
2018-02-07T21:05:42.443Z,26.27
2018-02-07T21:08:08.680Z,25.03
2018-02-07T21:10:34.794Z,26.40
2018-02-07T21:13:01.047Z,28.10
2018-02-07T21:15:27.232Z,27.97
2018-02-07T21:17:53.389Z,23.47
2018-02-07T21:20:19.506Z,24.87
2018-02-07T21:22:45.698Z,23.77
2018-02-07T21:25:11.806Z,25.60
2018-02-07T21:27:37.991Z,24.50
2018-02-07T21:30:04.119Z,24.57
2018-02-07T21:32:30.300Z,23.03
2018-02-07T21:34:56.447Z,22.67
2018-02-07T21:37:22.648Z,20.73
2018-02-07T21:39:48.786Z,23.50
2018-02-07T21:42:14.923Z,23.97
2018-02-07T21:44:41.140Z,20.90
2018-02-07T21:47:07.233Z,19.40
2018-02-07T21:49:33.356Z,19.47
2018-02-07T21:51:59.497Z,20.53
2018-02-07T21:54:25.671Z,19.53
2018-02-07T21:56:51.830Z,18.63
2018-02-07T21:59:17.991Z,17.17
2018-02-07T22:01:44.158Z,17.43
2018-02-07T22:04:10.332Z,17.33
2018-02-07T22:06:36.500Z,16.67
2018-02-07T22:09:02.715Z,15.50
2018-02-07T22:11:28.903Z,15.40
2018-02-07T22:13:55.382Z,15.30
2018-02-07T22:16:21.527Z,14.67
2018-02-07T22:18:47.757Z,15.17
2018-02-07T22:21:13.874Z,14.17
2018-02-07T22:23:40.031Z,17.93
2018-02-07T22:26:06.181Z,16.03
2018-02-07T22:28:32.335Z,16.53
2018-02-07T22:30:58.527Z,18.73
2018-02-07T22:33:24.699Z,17.77
2018-02-07T22:35:50.879Z,19.27
2018-02-07T22:38:17.030Z,19.40
2018-02-07T22:40:43.208Z,18.37
2018-02-07T22:43:09.433Z,18.33
2018-02-07T22:45:35.626Z,19.57
2018-02-07T22:48:01.770Z,19.47
2018-02-07T22:50:27.961Z,19.40
2018-02-07T22:52:54.122Z,20.43
2018-02-07T22:55:20.296Z,21.37
2018-02-07T22:57:46.473Z,20.67
2018-02-07T23:00:12.630Z,22.33
2018-02-07T23:02:38.750Z,21.43
2018-02-07T23:05:04.920Z,21.23
2018-02-07T23:07:31.062Z,20.00
2018-02-07T23:09:57.252Z,20.53
2018-02-07T23:12:23.436Z,22.97
2018-02-07T23:14:49.606Z,22.30
2018-02-07T23:17:15.808Z,22.30
2018-02-07T23:19:41.967Z,21.70
2018-02-07T23:22:08.053Z,22.07
2018-02-07T23:24:34.231Z,20.07
2018-02-07T23:27:00.365Z,18.00
2018-02-07T23:29:26.529Z,20.57
2018-02-07T23:31:52.638Z,20.13
2018-02-07T23:34:18.806Z,20.33
2018-02-07T23:36:44.996Z,23.37
2018-02-07T23:39:11.113Z,21.10
2018-02-07T23:41:37.245Z,20.47
2018-02-07T23:44:03.408Z,19.90
2018-02-07T23:46:29.570Z,19.50
2018-02-07T23:48:55.726Z,19.23
2018-02-07T23:51:21.879Z,17.83
2018-02-07T23:53:48.017Z,16.97
2018-02-07T23:56:14.151Z,19.10
2018-02-07T23:58:40.314Z,17.87
